createdAt,value
2023-03-05T00:01:31.035Z,0.44
2023-03-05T00:03:59.194Z,0.38
2023-03-05T00:06:29.138Z,0.45
2023-03-05T00:08:58.600Z,0.47
2023-03-05T00:11:30.168Z,0.45
2023-03-05T00:13:58.777Z,0.38
2023-03-05T00:16:27.622Z,0.38
2023-03-05T00:18:56.338Z,0.43
2023-03-05T00:21:32.781Z,0.44
2023-03-05T00:24:01.724Z,0.45
2023-03-05T00:26:30.449Z,0.51
2023-03-05T00:28:58.376Z,0.31
2023-03-05T00:31:31.064Z,0.23
2023-03-05T00:34:01.032Z,0.18
2023-03-05T00:36:29.494Z,0.18
2023-03-05T00:38:57.473Z,0.12
2023-03-05T00:41:25.314Z,0.11
2023-03-05T00:43:52.930Z,0.10
2023-03-05T00:46:20.553Z,0.07
2023-03-05T00:48:48.108Z,0.03
2023-03-05T00:51:15.859Z,-0.02
2023-03-05T00:53:43.459Z,-0.05
2023-03-05T00:56:11.126Z,-0.03
2023-03-05T00:58:38.939Z,-0.03
2023-03-05T01:01:06.929Z,-0.02
2023-03-05T01:03:35.862Z,-0.02
2023-03-05T01:06:09.891Z,0.01
2023-03-05T01:08:37.703Z,-0.08
2023-03-05T01:11:06.721Z,-0.10
2023-03-05T01:13:34.681Z,-0.09
2023-03-05T01:16:03.048Z,-0.10
2023-03-05T01:18:30.926Z,-0.08
2023-03-05T01:20:58.559Z,-0.22
2023-03-05T01:23:26.619Z,-0.13
2023-03-05T01:25:58.791Z,-0.04
2023-03-05T01:28:28.667Z,-0.15
2023-03-05T01:30:56.254Z,-0.16
2023-03-05T01:33:23.858Z,-0.22
2023-03-05T01:35:51.691Z,-0.40
2023-03-05T01:38:19.627Z,-0.37
2023-03-05T01:40:47.279Z,-0.45
2023-03-05T01:43:28.670Z,-0.53
2023-03-05T01:46:27.152Z,-0.51
2023-03-05T01:49:01.049Z,-0.59
2023-03-05T01:51:33.596Z,-0.63
2023-03-05T01:54:03.380Z,-0.55
2023-03-05T01:56:31.206Z,-0.68
2023-03-05T01:59:03.675Z,-0.78
2023-03-05T02:01:39.717Z,-0.77
2023-03-05T02:04:10.476Z,-0.90
2023-03-05T02:06:41.231Z,-0.95
2023-03-05T02:09:09.716Z,-0.91
2023-03-05T02:11:37.596Z,-0.84
2023-03-05T02:14:09.036Z,-0.95
2023-03-05T02:16:38.924Z,-0.99
2023-03-05T02:19:09.238Z,-0.98
2023-03-05T02:21:42.414Z,-1.04
2023-03-05T02:24:19.955Z,-1.00
2023-03-05T02:26:47.663Z,-0.81
2023-03-05T02:29:19.631Z,-0.95
2023-03-05T02:31:47.265Z,-0.99
2023-03-05T02:34:15.444Z,-0.95
2023-03-05T02:36:42.992Z,-1.01
2023-03-05T02:39:11.045Z,-1.07
2023-03-05T02:41:38.701Z,-1.00
2023-03-05T02:44:06.570Z,-1.08
2023-03-05T02:46:34.468Z,-1.08
2023-03-05T02:49:01.962Z,-1.07
2023-03-05T02:51:31.496Z,-1.12
2023-03-05T02:53:59.806Z,-1.06
2023-03-05T02:56:29.265Z,-1.05
2023-03-05T02:58:56.901Z,-1.08
2023-03-05T03:01:28.096Z,-1.10
2023-03-05T03:03:59.464Z,-1.14
2023-03-05T03:06:27.177Z,-1.22
2023-03-05T03:08:54.968Z,-1.19
2023-03-05T03:11:22.610Z,-1.22
2023-03-05T03:13:50.101Z,-1.19
2023-03-05T03:16:17.688Z,-1.16
2023-03-05T03:18:47.680Z,-1.13
2023-03-05T03:21:20.803Z,-1.08
2023-03-05T03:23:48.480Z,-1.09
2023-03-05T03:26:17.506Z,-1.12
2023-03-05T03:28:46.687Z,-1.19
2023-03-05T03:31:14.701Z,-1.12
2023-03-05T03:33:42.600Z,-1.08
2023-03-05T03:36:11.138Z,-0.98
2023-03-05T03:38:38.752Z,-0.96
2023-03-05T03:41:08.093Z,-0.98
2023-03-05T03:43:39.057Z,-0.94
2023-03-05T03:46:07.824Z,-0.85
2023-03-05T03:48:37.233Z,-0.77
2023-03-05T03:51:07.048Z,-0.86
2023-03-05T03:53:34.769Z,-0.89
2023-03-05T03:56:05.138Z,-0.86
2023-03-05T03:58:32.840Z,-0.90
2023-03-05T04:01:03.782Z,-0.96
2023-03-05T04:03:32.303Z,-0.98
2023-03-05T04:06:01.746Z,-0.99
2023-03-05T04:08:29.451Z,-1.06
2023-03-05T04:11:01.188Z,-1.04
2023-03-05T04:13:29.312Z,-1.08
2023-03-05T04:15:57.136Z,-1.04
2023-03-05T04:18:25.058Z,-1.06
2023-03-05T04:20:54.801Z,-1.01
2023-03-05T04:23:22.363Z,-0.95
2023-03-05T04:25:49.867Z,-1.01
2023-03-05T04:28:18.000Z,-0.99
2023-03-05T04:30:45.739Z,-1.00
2023-03-05T04:33:13.653Z,-0.95
2023-03-05T04:35:41.582Z,-0.95
2023-03-05T04:38:09.781Z,-0.89
2023-03-05T04:40:39.778Z,-0.89
2023-03-05T04:43:07.655Z,-0.86
2023-03-05T04:45:35.702Z,-0.96
2023-03-05T04:48:03.556Z,-0.92
2023-03-05T04:50:31.685Z,-0.88
2023-03-05T04:53:00.767Z,-0.90
2023-03-05T04:55:28.289Z,-0.92
2023-03-05T04:57:56.931Z,-0.93
2023-03-05T05:00:25.090Z,-0.87
2023-03-05T05:02:53.103Z,-0.77
2023-03-05T05:05:24.058Z,-0.77
2023-03-05T05:07:56.469Z,-0.80
2023-03-05T05:10:28.352Z,-0.76
2023-03-05T05:12:56.082Z,-0.66
2023-03-05T05:15:24.024Z,-0.66
2023-03-05T05:17:52.649Z,-0.56
2023-03-05T05:20:22.127Z,-0.46
2023-03-05T05:22:49.671Z,-0.33
2023-03-05T05:25:17.201Z,-0.23
2023-03-05T05:27:44.811Z,-0.21
2023-03-05T05:30:13.381Z,-0.14
2023-03-05T05:33:37.157Z,-0.04
2023-03-05T05:36:42.341Z,0.03
2023-03-05T05:44:43.300Z,0.25
2023-03-05T05:47:11.236Z,0.11
2023-03-05T05:49:38.847Z,0.05
2023-03-05T05:52:08.910Z,0.09
2023-03-05T05:54:36.526Z,0.16
2023-03-05T05:57:04.237Z,0.08
2023-03-05T05:59:31.740Z,0.07
2023-03-05T06:01:59.725Z,0.10
2023-03-05T06:04:27.482Z,0.24
2023-03-05T06:06:55.136Z,0.40
2023-03-05T06:09:23.750Z,0.54
2023-03-05T06:11:51.733Z,0.61
2023-03-05T06:14:19.216Z,0.64
2023-03-05T06:16:48.263Z,0.62
2023-03-05T06:19:16.404Z,0.67
2023-03-05T06:21:43.956Z,0.73
2023-03-05T06:24:13.579Z,0.70
2023-03-05T06:26:41.608Z,0.69
2023-03-05T06:29:09.127Z,0.66
2023-03-05T06:31:39.246Z,0.53
2023-03-05T06:34:07.833Z,0.55
2023-03-05T06:36:35.390Z,0.39
2023-03-05T06:39:04.735Z,0.42
2023-03-05T06:41:33.170Z,0.49
2023-03-05T06:44:05.099Z,0.58
2023-03-05T06:46:37.631Z,0.73
2023-03-05T06:49:05.743Z,0.80
2023-03-05T06:51:39.771Z,0.87
2023-03-05T06:54:13.471Z,0.89
2023-03-05T06:56:45.024Z,0.93
2023-03-05T06:59:15.410Z,0.83
2023-03-05T07:01:44.351Z,0.82
2023-03-05T07:04:12.972Z,0.88
2023-03-05T07:06:44.703Z,0.99
2023-03-05T07:09:15.881Z,1.01
2023-03-05T07:11:44.088Z,0.96
2023-03-05T07:14:11.703Z,0.96
2023-03-05T07:16:39.458Z,1.02
2023-03-05T07:19:08.090Z,1.04
2023-03-05T07:21:39.108Z,1.10
2023-03-05T07:24:08.844Z,1.10
2023-03-05T07:26:41.113Z,1.14
2023-03-05T07:29:08.726Z,1.06
2023-03-05T07:31:36.252Z,1.02
2023-03-05T07:34:06.643Z,1.05
2023-03-05T07:36:35.138Z,1.07
2023-03-05T07:39:05.070Z,1.12
2023-03-05T07:41:33.302Z,1.11
2023-03-05T07:44:00.789Z,1.15
2023-03-05T07:46:31.216Z,1.17
2023-03-05T07:48:59.007Z,1.23
2023-03-05T07:51:27.673Z,1.29
2023-03-05T07:53:57.666Z,1.29
2023-03-05T07:56:29.975Z,1.35
2023-03-05T07:59:02.596Z,1.35
2023-03-05T08:01:31.841Z,1.42
2023-03-05T08:03:59.811Z,1.56
2023-03-05T08:06:27.957Z,1.70
2023-03-05T08:08:55.793Z,1.81
2023-03-05T08:11:23.353Z,1.87
2023-03-05T08:13:51.388Z,1.97
2023-03-05T08:16:21.880Z,2.02
2023-03-05T08:18:50.138Z,2.08
2023-03-05T08:21:26.938Z,2.19
2023-03-05T08:23:54.491Z,2.27
2023-03-05T08:26:25.308Z,2.30
2023-03-05T08:28:53.120Z,2.30
2023-03-05T08:31:23.043Z,2.34
2023-03-05T08:33:54.070Z,2.36
2023-03-05T08:36:22.381Z,2.38
2023-03-05T08:38:52.879Z,2.37
2023-03-05T08:41:21.284Z,2.37
2023-03-05T08:43:48.992Z,2.35
2023-03-05T08:46:18.241Z,2.37
2023-03-05T08:48:46.099Z,2.33
2023-03-05T08:51:19.230Z,2.43
2023-03-05T08:53:48.931Z,2.45
2023-03-05T08:56:18.853Z,2.50
2023-03-05T08:58:48.423Z,2.47
2023-03-05T09:01:15.927Z,2.42
2023-03-05T09:03:43.881Z,2.36
2023-03-05T09:06:13.076Z,2.27
2023-03-05T09:08:40.904Z,2.22
2023-03-05T09:11:14.283Z,2.24
2023-03-05T09:13:42.067Z,2.21
2023-03-05T09:16:15.541Z,2.23
2023-03-05T09:18:44.464Z,2.22
2023-03-05T09:21:17.485Z,2.22
2023-03-05T09:23:50.098Z,2.23
2023-03-05T09:26:21.694Z,2.23
2023-03-05T09:28:49.274Z,2.28
2023-03-05T09:31:17.308Z,2.28
2023-03-05T09:33:45.019Z,2.30
2023-03-05T09:39:38.603Z,2.55
2023-03-05T09:42:29.796Z,2.65
2023-03-05T09:45:15.641Z,2.55
2023-03-05T09:48:01.634Z,2.63
2023-03-05T09:50:32.506Z,2.53
2023-03-05T09:53:17.541Z,2.54
2023-03-05T09:55:50.669Z,2.41
2023-03-05T09:58:46.230Z,2.51
2023-03-05T10:01:17.038Z,2.40
2023-03-05T10:04:04.405Z,2.48
2023-03-05T10:06:36.921Z,2.36
2023-03-05T10:09:14.691Z,2.29
2023-03-05T10:11:55.246Z,2.34
2023-03-05T10:14:55.497Z,2.33
2023-03-05T10:18:01.705Z,2.26
2023-03-05T10:20:50.410Z,2.09
2023-03-05T10:24:03.080Z,2.19
2023-03-05T10:26:58.509Z,2.31
2023-03-05T10:29:35.182Z,2.18
2023-03-05T10:32:09.522Z,2.09
2023-03-05T10:34:49.611Z,2.10
2023-03-05T10:37:48.778Z,2.14
2023-03-05T10:40:37.443Z,2.16
2023-03-05T10:43:20.874Z,2.21
2023-03-05T10:45:50.723Z,2.16
2023-03-05T10:48:42.271Z,2.23
2023-03-05T10:51:19.771Z,2.23
2023-03-05T10:53:58.278Z,2.49
2023-03-05T10:56:29.086Z,2.34
2023-03-05T10:58:56.972Z,2.24
2023-03-05T11:01:28.228Z,2.18
2023-03-05T11:04:00.735Z,2.13
2023-03-05T11:06:31.483Z,2.04
2023-03-05T11:09:24.573Z,2.08
2023-03-05T11:12:08.983Z,2.08
2023-03-05T11:14:40.073Z,1.99
2023-03-05T11:17:28.549Z,2.08
2023-03-05T11:20:17.192Z,1.93
2023-03-05T11:23:15.862Z,2.05
2023-03-05T11:25:54.246Z,2.22
2023-03-05T11:28:33.250Z,2.12
2023-03-05T11:31:16.676Z,2.02
2023-03-05T11:34:01.169Z,2.04
2023-03-05T11:36:30.799Z,2.04
2023-03-05T11:39:07.823Z,2.25
2023-03-05T11:41:40.239Z,2.36
2023-03-05T11:44:23.941Z,2.57
2023-03-05T11:46:55.972Z,2.66
2023-03-05T11:49:34.089Z,2.83
2023-03-05T11:52:18.501Z,2.87
2023-03-05T11:55:14.822Z,2.99
2023-03-05T11:58:20.783Z,2.99
2023-03-05T12:00:49.256Z,2.85
2023-03-05T12:03:21.335Z,2.73
2023-03-05T12:05:54.054Z,2.56
2023-03-05T12:08:28.117Z,2.35
2023-03-05T12:10:56.817Z,2.22
2023-03-05T12:13:34.749Z,2.22
2023-03-05T12:16:24.455Z,2.22
2023-03-05T12:19:07.808Z,2.07
2023-03-05T12:21:41.295Z,2.05
2023-03-05T12:24:27.460Z,2.01
2023-03-05T12:27:04.865Z,1.93
2023-03-05T12:29:45.968Z,1.92
2023-03-05T12:32:22.639Z,1.88
2023-03-05T12:34:58.136Z,1.92
2023-03-05T12:37:25.783Z,1.83
2023-03-05T12:40:08.738Z,1.81
2023-03-05T12:42:39.339Z,1.87
2023-03-05T12:45:09.935Z,1.89
2023-03-05T12:47:42.132Z,1.92
2023-03-05T12:50:28.307Z,2.04
2023-03-05T12:53:18.434Z,1.90
2023-03-05T12:55:51.219Z,1.90
2023-03-05T12:58:43.035Z,1.99
2023-03-05T13:01:32.198Z,1.85
2023-03-05T13:04:11.233Z,1.85
2023-03-05T13:06:39.663Z,1.82
2023-03-05T13:09:19.008Z,1.88
2023-03-05T13:11:51.303Z,1.77
2023-03-05T13:14:31.676Z,1.79
2023-03-05T13:17:00.629Z,1.68
2023-03-05T13:19:29.843Z,1.63
2023-03-05T13:22:02.702Z,1.66
2023-03-05T13:24:31.213Z,1.64
2023-03-05T13:26:58.796Z,1.66
2023-03-05T13:29:31.327Z,1.64
2023-03-05T13:32:01.767Z,1.63
2023-03-05T13:34:47.337Z,1.66
2023-03-05T13:37:20.843Z,1.65
2023-03-05T13:39:50.337Z,1.59
2023-03-05T13:42:21.221Z,1.59
2023-03-05T13:45:00.758Z,1.63
2023-03-05T13:47:32.079Z,1.58
2023-03-05T13:50:02.219Z,1.59
2023-03-05T13:52:34.107Z,1.53
2023-03-05T13:55:04.568Z,1.45
2023-03-05T13:57:43.710Z,1.56
2023-03-05T14:00:31.773Z,1.59
2023-03-05T14:03:01.429Z,1.70
2023-03-05T14:05:31.582Z,1.48
2023-03-05T14:07:59.303Z,1.39
2023-03-05T14:10:34.750Z,1.34
2023-03-05T14:13:13.674Z,1.30
2023-03-05T14:15:41.441Z,1.25
2023-03-05T14:18:12.111Z,1.23
2023-03-05T14:20:41.958Z,1.20
2023-03-05T14:23:35.933Z,1.29
2023-03-05T14:26:28.325Z,1.30
2023-03-05T14:29:00.538Z,1.17
2023-03-05T14:31:31.155Z,1.12
2023-03-05T14:34:07.467Z,1.12
2023-03-05T14:36:35.653Z,1.01
2023-03-05T14:39:03.530Z,0.97
2023-03-05T14:41:34.422Z,0.93
2023-03-05T14:44:02.826Z,0.93
2023-03-05T14:46:31.360Z,0.93
2023-03-05T14:48:59.196Z,0.95
2023-03-05T14:51:26.966Z,0.93
2023-03-05T14:53:55.167Z,0.93
2023-03-05T14:56:26.270Z,0.92
2023-03-05T14:58:54.684Z,0.88
2023-03-05T15:01:22.223Z,0.81
2023-03-05T15:03:50.092Z,0.76
2023-03-05T15:06:30.304Z,0.79
2023-03-05T15:08:57.827Z,0.74
2023-03-05T15:11:25.604Z,0.72
2023-03-05T15:13:53.079Z,0.75
2023-03-05T15:16:21.529Z,0.76
2023-03-05T15:18:49.432Z,0.73
2023-03-05T15:21:16.958Z,0.77
2023-03-05T15:23:45.467Z,0.70
2023-03-05T15:26:15.152Z,0.73
2023-03-05T15:28:43.390Z,0.69
2023-03-05T15:31:11.598Z,0.70
2023-03-05T15:33:41.889Z,0.71
2023-03-05T15:36:10.041Z,0.70
2023-03-05T15:38:39.066Z,0.72
2023-03-05T15:41:07.527Z,0.71
2023-03-05T15:43:35.360Z,0.74
2023-03-05T15:46:06.262Z,0.71
2023-03-05T15:48:34.023Z,0.75
2023-03-05T15:51:06.277Z,0.76
2023-03-05T15:53:33.774Z,0.77
2023-03-05T15:56:01.365Z,0.75
2023-03-05T15:58:28.907Z,0.69
2023-03-05T16:00:56.699Z,0.68
2023-03-05T16:03:24.438Z,0.73
2023-03-05T16:05:52.004Z,0.73
2023-03-05T16:08:22.098Z,0.73
2023-03-05T16:10:51.764Z,0.74
2023-03-05T16:13:21.672Z,0.75
2023-03-05T16:15:53.393Z,0.75
2023-03-05T16:18:21.865Z,0.70
2023-03-05T16:20:49.877Z,0.61
2023-03-05T16:23:17.518Z,0.57
2023-03-05T16:25:47.782Z,0.48
2023-03-05T16:28:15.705Z,0.44
2023-03-05T16:30:43.946Z,0.38
2023-03-05T16:33:11.557Z,0.37
2023-03-05T16:35:39.323Z,0.37
2023-03-05T16:38:08.537Z,0.42
2023-03-05T16:41:06.017Z,0.45
2023-03-05T16:43:28.074Z,0.49
2023-03-05T16:45:55.597Z,0.55
2023-03-05T16:48:23.364Z,0.56
2023-03-05T16:50:50.943Z,0.61
2023-03-05T16:53:20.022Z,0.64
2023-03-05T16:55:47.822Z,0.68
2023-03-05T16:58:15.389Z,0.67
2023-03-05T17:00:43.315Z,0.66
2023-03-05T17:03:10.841Z,0.60
2023-03-05T17:05:40.045Z,0.59
2023-03-05T17:08:08.371Z,0.51
2023-03-05T17:10:35.980Z,0.51
2023-03-05T17:13:04.882Z,0.49
2023-03-05T17:15:33.626Z,0.45
2023-03-05T17:18:01.402Z,0.41
2023-03-05T17:20:29.421Z,0.41
2023-03-05T17:22:56.917Z,0.42
2023-03-05T17:25:24.421Z,0.41
2023-03-05T17:27:52.520Z,0.44
2023-03-05T17:30:23.055Z,0.42
2023-03-05T17:32:53.900Z,0.46
2023-03-05T17:35:22.819Z,0.41
2023-03-05T17:37:51.817Z,0.41
2023-03-05T17:40:19.474Z,0.38
2023-03-05T17:42:46.952Z,0.36
2023-03-05T17:45:14.778Z,0.37
2023-03-05T17:47:42.777Z,0.37
2023-03-05T17:50:11.324Z,0.37
2023-03-05T17:52:41.098Z,0.40
2023-03-05T17:55:10.867Z,0.40
2023-03-05T17:57:43.856Z,0.41
2023-03-05T18:00:24.440Z,0.42
2023-03-05T18:02:52.421Z,0.39
2023-03-05T18:05:22.015Z,0.45
2023-03-05T18:07:50.233Z,0.47
2023-03-05T18:10:19.654Z,0.53
2023-03-05T18:12:48.206Z,0.59
2023-03-05T18:15:17.758Z,0.59
2023-03-05T18:17:45.392Z,0.70
2023-03-05T18:20:25.112Z,0.78
2023-03-05T18:22:53.178Z,0.76
2023-03-05T18:25:20.796Z,0.79
2023-03-05T18:27:48.684Z,0.82
2023-03-05T18:30:16.247Z,0.86
2023-03-05T18:32:45.031Z,0.90
2023-03-05T18:35:14.173Z,0.89
2023-03-05T18:37:41.884Z,0.88
2023-03-05T18:40:14.702Z,0.89
2023-03-05T18:42:43.993Z,0.87
2023-03-05T18:45:14.441Z,0.84
2023-03-05T18:47:44.748Z,0.88
2023-03-05T18:50:15.081Z,0.80
2023-03-05T18:52:48.142Z,0.78
2023-03-05T18:55:18.063Z,0.76
2023-03-05T18:57:45.837Z,0.80
2023-03-05T19:00:16.038Z,0.80
2023-03-05T19:02:43.756Z,0.77
2023-03-05T19:05:13.456Z,0.76
2023-03-05T19:07:42.017Z,0.71
2023-03-05T19:10:12.394Z,0.68
2023-03-05T19:13:32.239Z,0.79
2023-03-05T19:16:14.201Z,0.73
2023-03-05T19:19:20.495Z,0.73
2023-03-05T19:22:06.637Z,0.73
2023-03-05T19:24:34.673Z,0.57
2023-03-05T19:27:10.159Z,0.49
2023-03-05T19:29:38.492Z,0.42
2023-03-05T19:32:08.874Z,0.32
2023-03-05T19:34:37.164Z,0.25
2023-03-05T19:37:08.115Z,0.21
2023-03-05T19:39:36.415Z,0.13
2023-03-05T19:42:04.622Z,0.11
2023-03-05T19:44:32.235Z,0.14
2023-03-05T19:47:00.050Z,0.16
2023-03-05T19:49:27.686Z,0.18
2023-03-05T19:51:55.831Z,0.25
2023-03-05T19:54:24.793Z,0.32
2023-03-05T19:56:54.962Z,0.36
2023-03-05T19:59:24.991Z,0.45
2023-03-05T20:01:53.743Z,0.55
2023-03-05T20:04:22.810Z,0.52
2023-03-05T20:06:51.254Z,0.58
2023-03-05T20:09:18.913Z,0.55
2023-03-05T20:11:47.260Z,0.53
2023-03-05T20:14:14.888Z,0.55
2023-03-05T20:16:43.638Z,0.57
2023-03-05T20:19:16.450Z,0.63
2023-03-05T20:21:45.113Z,0.66
2023-03-05T20:24:15.872Z,0.70
2023-03-05T20:26:45.453Z,0.74
2023-03-05T20:29:17.514Z,0.67
2023-03-05T20:31:46.488Z,0.62
2023-03-05T20:34:16.679Z,0.64
2023-03-05T20:36:44.880Z,0.62
2023-03-05T20:39:12.704Z,0.67
2023-03-05T20:41:40.966Z,0.70
2023-03-05T20:44:08.945Z,0.65
2023-03-05T20:47:09.990Z,0.68
2023-03-05T20:49:43.993Z,0.69
2023-03-05T20:52:11.553Z,0.53
2023-03-05T20:54:39.024Z,0.48
2023-03-05T20:57:06.576Z,0.37
2023-03-05T20:59:34.088Z,0.37
2023-03-05T21:02:01.717Z,0.35
2023-03-05T21:04:29.274Z,0.35
2023-03-05T21:06:58.051Z,0.33
2023-03-05T21:09:28.379Z,0.34
2023-03-05T21:11:55.973Z,0.34
2023-03-05T21:14:23.624Z,0.38
2023-03-05T21:16:51.113Z,0.40
2023-03-05T21:19:18.658Z,0.45
2023-03-05T21:21:46.208Z,0.43
2023-03-05T21:24:48.504Z,0.44
2023-03-05T21:27:37.299Z,0.50
2023-03-05T21:30:05.588Z,0.46
2023-03-05T21:32:33.255Z,0.47
2023-03-05T21:35:00.873Z,0.43
2023-03-05T21:37:28.362Z,0.43
2023-03-05T21:39:55.847Z,0.40
2023-03-05T21:42:23.343Z,0.39
2023-03-05T21:44:50.964Z,0.38
2023-03-05T21:47:18.536Z,0.40
2023-03-05T21:49:46.216Z,0.38
2023-03-05T21:52:13.893Z,0.40
2023-03-05T21:54:42.468Z,0.45
2023-03-05T21:57:11.620Z,0.46
2023-03-05T21:59:42.920Z,0.52
2023-03-05T22:02:16.287Z,0.53
2023-03-05T22:04:46.923Z,0.58
2023-03-05T22:07:16.439Z,0.54
2023-03-05T22:09:44.764Z,0.54
2023-03-05T22:13:14.960Z,0.62
2023-03-05T22:15:56.957Z,0.55
2023-03-05T22:18:30.353Z,0.55
2023-03-05T22:20:59.258Z,0.55
2023-03-05T22:23:30.992Z,0.54
2023-03-05T22:26:01.290Z,0.55
2023-03-05T22:28:29.547Z,0.58
2023-03-05T22:30:57.064Z,0.62
2023-03-05T22:33:24.928Z,0.66
2023-03-05T22:35:52.629Z,0.66
2023-03-05T22:38:20.348Z,0.68
2023-03-05T22:40:49.596Z,0.70
2023-03-05T22:43:18.873Z,0.65
2023-03-05T22:45:46.428Z,0.56
2023-03-05T22:48:14.726Z,0.54
2023-03-05T22:50:44.018Z,0.44
2023-03-05T22:53:12.420Z,0.42
2023-03-05T22:55:41.361Z,0.46
2023-03-05T22:58:11.036Z,0.45
2023-03-05T23:00:38.656Z,0.40
2023-03-05T23:03:08.906Z,0.42
2023-03-05T23:05:39.046Z,0.40
2023-03-05T23:08:07.823Z,0.38
2023-03-05T23:10:35.516Z,0.33
2023-03-05T23:13:03.016Z,0.34
2023-03-05T23:15:38.288Z,0.31
2023-03-05T23:18:09.024Z,0.23
2023-03-05T23:20:37.845Z,0.16
2023-03-05T23:23:05.436Z,0.15
2023-03-05T23:25:34.564Z,0.15
2023-03-05T23:28:03.864Z,0.18
2023-03-05T23:30:34.667Z,0.15
2023-03-05T23:33:02.276Z,0.16
2023-03-05T23:35:33.442Z,0.16
2023-03-05T23:38:05.810Z,0.18
2023-03-05T23:40:43.576Z,0.22
2023-03-05T23:43:11.665Z,0.15
2023-03-05T23:45:45.374Z,0.21
2023-03-05T23:48:12.867Z,0.16
2023-03-05T23:50:43.017Z,0.13
2023-03-05T23:53:11.073Z,0.11
2023-03-05T23:55:43.963Z,0.08
2023-03-05T23:58:11.890Z,0.08
